Time;durP1;ratioP1;P1;durP2;ratioP2;P2;SDS_P1;SDS_P2;PMS_P1;PMS_P2;Temp;Humidity;BMP_temperature;BMP_pressure;BME280_temperature;BME280_humidity;BME280_pressure;Samples;Min_cycle;Max_cycle;Signal;HPM_P1;HPM_P2
2023/05/11 00:02:20;;;;;;;5.97;2.13;;;;;;;;;;5053485;28;20216;-70
2023/05/11 00:05:24;;;;;;;4.30;2.47;;;;;;;;;;5040894;28;20200;-71
2023/05/11 00:08:29;;;;;;;1.90;1.80;;;;;;;;;;5053462;28;20176;-71
2023/05/11 00:11:32;;;;;;;2.30;1.83;;;;;;;;;;5053296;28;20228;-71
2023/05/11 00:14:36;;;;;;;3.50;2.30;;;;;;;;;;5053132;28;20184;-70
2023/05/11 00:17:40;;;;;;;3.17;2.10;;;;;;;;;;5041173;28;20184;-71
2023/05/11 00:20:45;;;;;;;2.97;2.10;;;;;;;;;;5041072;28;20168;-70
2023/05/11 00:23:49;;;;;;;4.57;2.47;;;;;;;;;;5053306;28;20176;-71
2023/05/11 00:26:54;;;;;;;2.77;2.30;;;;;;;;;;5053518;28;20176;-71
2023/05/11 00:29:58;;;;;;;4.77;2.10;;;;;;;;;;5041284;28;20204;-70
2023/05/11 00:33:03;;;;;;;3.87;2.07;;;;;;;;;;5040938;28;20208;-71
2023/05/11 00:36:07;;;;;;;3.87;2.30;;;;;;;;;;5041128;28;20184;-71
2023/05/11 00:39:11;;;;;;;2.93;2.20;;;;;;;;;;5040542;28;20532;-71
2023/05/11 00:42:16;;;;;;;3.80;2.17;;;;;;;;;;5052733;28;20212;-71
2023/05/11 00:45:20;;;;;;;3.83;2.53;;;;;;;;;;5041032;28;20180;-70
2023/05/11 00:48:24;;;;;;;3.93;2.60;;;;;;;;;;5029531;28;20184;-71
2023/05/11 00:51:30;;;;;;;3.67;2.50;;;;;;;;;;5052912;28;20231;-71
2023/05/11 00:54:35;;;;;;;2.90;2.60;;;;;;;;;;5041019;28;20180;-71
2023/05/11 00:57:40;;;;;;;4.60;3.10;;;;;;;;;;5053563;28;20180;-71
2023/05/11 01:00:46;;;;;;;3.33;2.90;;;;;;;;;;5044088;28;20172;-71
2023/05/11 01:03:51;;;;;;;4.93;2.63;;;;;;;;;;5056492;28;20523;-71
2023/05/11 01:07:13;;;;;;;3.70;2.80;;;;;;;;;;5044852;28;20180;-71
2023/05/11 01:10:36;;;;;;;6.37;3.33;;;;;;;;;;5044417;28;20205;-71
2023/05/11 01:13:47;;;;;;;4.40;2.97;;;;;;;;;;5044416;28;20185;-70
2023/05/11 01:16:56;;;;;;;5.47;2.50;;;;;;;;;;5056365;28;20188;-71
2023/05/11 01:20:05;;;;;;;3.40;2.60;;;;;;;;;;5044340;28;20185;-71
2023/05/11 01:23:34;;;;;;;6.67;2.80;;;;;;;;;;5044039;28;20216;-71
2023/05/11 01:26:58;;;;;;;5.10;2.60;;;;;;;;;;5056478;28;20176;-71
2023/05/11 01:30:14;;;;;;;4.07;2.93;;;;;;;;;;5043993;28;20212;-70
2023/05/11 01:33:29;;;;;;;4.50;2.97;;;;;;;;;;5043939;28;20215;-71
2023/05/11 01:36:37;;;;;;;3.33;3.03;;;;;;;;;;5056271;28;20181;-71
2023/05/11 01:39:51;;;;;;;2.90;2.60;;;;;;;;;;5044147;28;20173;-70
2023/05/11 01:43:04;;;;;;;3.23;2.53;;;;;;;;;;5055834;28;20220;-71
2023/05/11 01:46:09;;;;;;;3.17;2.60;;;;;;;;;;5043836;28;20180;-71
2023/05/11 01:49:14;;;;;;;3.23;2.63;;;;;;;;;;5043435;28;20181;-71
2023/05/11 01:52:21;;;;;;;3.07;2.33;;;;;;;;;;5055879;28;20207;-70
2023/05/11 01:55:26;;;;;;;5.83;2.50;;;;;;;;;;5032267;28;20659;-70
2023/05/11 01:58:33;;;;;;;4.53;2.43;;;;;;;;;;5044186;28;20184;-71
2023/05/11 02:01:39;;;;;;;2.40;2.20;;;;;;;;;;5043237;28;20211;-71
2023/05/11 02:04:44;;;;;;;2.80;2.47;;;;;;;;;;5032099;28;20199;-71
2023/05/11 02:07:51;;;;;;;2.93;2.43;;;;;;;;;;5055717;28;20184;-71
2023/05/11 02:10:56;;;;;;;2.83;2.27;;;;;;;;;;5042912;28;20208;-70
2023/05/11 02:14:02;;;;;;;4.20;2.47;;;;;;;;;;5032185;28;20185;-70
2023/05/11 02:17:08;;;;;;;4.33;2.53;;;;;;;;;;5043072;28;20176;-71
2023/05/11 02:20:12;;;;;;;3.17;2.37;;;;;;;;;;5043097;28;20184;-70
2023/05/11 02:23:18;;;;;;;3.03;2.40;;;;;;;;;;5031474;28;20556;-71
2023/05/11 02:26:22;;;;;;;2.43;2.23;;;;;;;;;;5031473;28;20188;-71
2023/05/11 02:29:27;;;;;;;3.97;2.00;;;;;;;;;;5031981;28;20532;-71
2023/05/11 02:32:34;;;;;;;2.20;2.00;;;;;;;;;;5054730;28;20567;-71
2023/05/11 02:35:42;;;;;;;4.37;1.80;;;;;;;;;;5031322;28;20627;-71
2023/05/11 02:38:49;;;;;;;2.23;2.03;;;;;;;;;;5042722;28;20173;-71
2023/05/11 02:41:57;;;;;;;3.40;1.93;;;;;;;;;;5042312;28;20211;-71
2023/05/11 02:45:06;;;;;;;2.37;2.17;;;;;;;;;;5031139;28;20176;-71
2023/05/11 02:48:21;;;;;;;3.23;1.90;;;;;;;;;;5042829;28;20192;-71
2023/05/11 02:51:31;;;;;;;3.27;2.10;;;;;;;;;;5031426;28;20228;-71
2023/05/11 02:54:37;;;;;;;4.20;2.13;;;;;;;;;;5031070;28;20631;-71
2023/05/11 02:57:45;;;;;;;2.27;2.07;;;;;;;;;;5042380;28;20631;-71
2023/05/11 03:00:50;;;;;;;3.23;2.17;;;;;;;;;;5041982;28;20532;-71
2023/05/11 03:03:55;;;;;;;2.73;2.40;;;;;;;;;;5042329;28;20180;-71
2023/05/11 03:07:00;;;;;;;2.73;2.33;;;;;;;;;;5019731;28;20177;-71
2023/05/11 03:10:07;;;;;;;3.10;2.00;;;;;;;;;;5019727;28;20520;-70
2023/05/11 03:13:15;;;;;;;6.80;2.00;;;;;;;;;;5041696;28;20216;-71
2023/05/11 03:16:21;;;;;;;3.30;1.90;;;;;;;;;;5030764;28;20538;-71
2023/05/11 03:19:27;;;;;;;3.63;1.80;;;;;;;;;;5030465;28;20184;-70
2023/05/11 03:22:32;;;;;;;6.50;2.30;;;;;;;;;;5041225;28;20220;-70
2023/05/11 03:25:36;;;;;;;4.00;2.00;;;;;;;;;;5041598;28;20524;-71
2023/05/11 03:28:43;;;;;;;2.30;2.10;;;;;;;;;;5041775;28;20180;-71
2023/05/11 03:31:47;;;;;;;3.10;1.83;;;;;;;;;;5041208;28;20231;-71
2023/05/11 03:34:51;;;;;;;2.33;2.00;;;;;;;;;;5042140;28;20192;-71
2023/05/11 03:37:58;;;;;;;2.67;1.80;;;;;;;;;;5041613;28;20184;-71
2023/05/11 03:41:03;;;;;;;1.80;1.70;;;;;;;;;;5041393;28;20200;-71
2023/05/11 03:44:12;;;;;;;2.47;2.00;;;;;;;;;;5041225;28;20524;-70
2023/05/11 03:47:19;;;;;;;2.10;1.87;;;;;;;;;;5030580;28;20508;-70
2023/05/11 03:50:26;;;;;;;2.30;2.00;;;;;;;;;;5029757;28;20520;-71
2023/05/11 03:53:30;;;;;;;3.70;2.40;;;;;;;;;;5041257;28;20173;-71
2023/05/11 03:56:37;;;;;;;2.33;2.10;;;;;;;;;;5041257;28;20172;-70
2023/05/11 03:59:41;;;;;;;2.87;2.33;;;;;;;;;;5041255;28;20181;-71
2023/05/11 04:02:45;;;;;;;2.30;2.10;;;;;;;;;;5029794;28;20216;-71
2023/05/11 04:05:49;;;;;;;2.43;1.90;;;;;;;;;;5053027;28;20208;-71
2023/05/11 04:08:53;;;;;;;2.90;1.80;;;;;;;;;;5041048;28;20199;-71
2023/05/11 04:11:58;;;;;;;3.80;2.00;;;;;;;;;;5040842;28;20223;-71
2023/05/11 04:15:03;;;;;;;3.97;2.37;;;;;;;;;;5040734;28;20196;-71
2023/05/11 04:18:07;;;;;;;2.70;2.50;;;;;;;;;;5040685;28;20199;-71
2023/05/11 04:21:11;;;;;;;2.57;2.17;;;;;;;;;;5029265;28;20192;-71
2023/05/11 04:24:15;;;;;;;2.47;2.27;;;;;;;;;;5029568;28;20184;-70
2023/05/11 04:27:20;;;;;;;3.20;2.63;;;;;;;;;;5053406;28;20180;-71
2023/05/11 04:30:24;;;;;;;2.83;2.40;;;;;;;;;;5040649;28;20524;-71
2023/05/11 04:33:28;;;;;;;3.60;1.90;;;;;;;;;;5031274;28;20634;-71
2023/05/11 04:36:33;;;;;;;1.90;1.80;;;;;;;;;;5033754;28;20180;-71
2023/05/11 04:39:37;;;;;;;3.80;1.50;;;;;;;;;;5044875;28;20184;-71
2023/05/11 04:42:41;;;;;;;3.23;1.70;;;;;;;;;;5044621;28;20215;-71
2023/05/11 04:45:51;;;;;;;1.63;1.53;;;;;;;;;;5044518;28;20196;-71
2023/05/11 04:49:03;;;;;;;3.33;1.70;;;;;;;;;;5044936;28;20638;-71
2023/05/11 04:52:08;;;;;;;2.40;1.60;;;;;;;;;;5044909;28;20559;-70
2023/05/11 04:55:12;;;;;;;2.43;1.80;;;;;;;;;;5033074;28;20214;-70
2023/05/11 04:58:17;;;;;;;2.60;2.40;;;;;;;;;;5033523;28;20180;-70
2023/05/11 05:01:21;;;;;;;4.30;2.03;;;;;;;;;;5056742;28;20282;-70
2023/05/11 05:04:26;;;;;;;2.30;2.10;;;;;;;;;;5044217;28;20203;-71
2023/05/11 05:07:30;;;;;;;2.57;2.37;;;;;;;;;;5056434;28;20188;-71
2023/05/11 05:10:34;;;;;;;3.20;2.40;;;;;;;;;;5044364;28;20184;-71
2023/05/11 05:13:38;;;;;;;3.17;2.70;;;;;;;;;;5044005;28;20188;-70
2023/05/11 05:16:43;;;;;;;3.43;2.70;;;;;;;;;;5059091;22;20658;-74
2023/05/11 05:19:47;;;;;;;6.30;2.77;;;;;;;;;;5036553;28;20212;-75
2023/05/11 05:22:51;;;;;;;3.20;2.90;;;;;;;;;;5009658;28;20201;-74
2023/05/11 05:25:56;;;;;;;3.43;3.13;;;;;;;;;;5004602;28;20182;-74
2023/05/11 05:29:00;;;;;;;3.90;2.90;;;;;;;;;;5004806;28;20186;-74
2023/05/11 05:32:04;;;;;;;3.10;2.80;;;;;;;;;;5016324;28;20225;-74
2023/05/11 05:35:08;;;;;;;3.80;3.17;;;;;;;;;;5004632;28;20540;-74
2023/05/11 05:38:12;;;;;;;4.10;3.43;;;;;;;;;;5016902;28;20204;-74
2023/05/11 05:41:17;;;;;;;44.70;30.27;;;;;;;;;;5004128;28;20517;-74
2023/05/11 05:44:23;;;;;;;10.33;7.90;;;;;;;;;;5004336;28;20180;-74
2023/05/11 05:47:26;;;;;;;4.93;4.47;;;;;;;;;;5004326;28;20173;-74
2023/05/11 05:50:31;;;;;;;4.03;3.70;;;;;;;;;;5004959;28;20190;-74
2023/05/11 05:53:36;;;;;;;5.73;5.00;;;;;;;;;;5004194;28;20174;-74
2023/05/11 05:56:41;;;;;;;18.27;16.07;;;;;;;;;;4993165;28;20185;-75
2023/05/11 05:59:45;;;;;;;6.80;5.73;;;;;;;;;;5003743;28;20193;-74
2023/05/11 06:02:51;;;;;;;9.30;8.27;;;;;;;;;;5003792;28;20217;-74
2023/05/11 06:06:03;;;;;;;24.13;19.13;;;;;;;;;;4982571;28;20189;-74
2023/05/11 06:09:08;;;;;;;11.03;9.87;;;;;;;;;;5003993;28;20671;-74
2023/05/11 06:12:12;;;;;;;5.33;3.73;;;;;;;;;;5003854;28;20557;-74
2023/05/11 06:15:21;;;;;;;3.80;3.40;;;;;;;;;;4993222;28;20206;-75
2023/05/11 06:18:30;;;;;;;3.70;3.20;;;;;;;;;;4992431;28;20209;-75
2023/05/11 06:21:35;;;;;;;3.50;3.17;;;;;;;;;;5003911;28;20689;-75
2023/05/11 06:24:39;;;;;;;5.30;4.00;;;;;;;;;;5003326;28;20193;-75
2023/05/11 06:27:43;;;;;;;6.73;3.27;;;;;;;;;;5015818;28;20197;-74
2023/05/11 06:30:47;;;;;;;6.13;3.53;;;;;;;;;;5014570;28;20541;-74
2023/05/11 06:33:51;;;;;;;4.20;3.23;;;;;;;;;;5003468;28;20170;-75
2023/05/11 06:37:02;;;;;;;3.40;3.10;;;;;;;;;;5003376;28;20185;-75
2023/05/11 06:40:06;;;;;;;6.37;4.87;;;;;;;;;;4991916;28;20656;-74
2023/05/11 06:43:11;;;;;;;9.87;8.50;;;;;;;;;;4992492;28;20552;-74
2023/05/11 06:46:23;;;;;;;6.17;5.10;;;;;;;;;;5003031;28;20186;-74
2023/05/11 06:49:27;;;;;;;9.80;7.47;;;;;;;;;;5003443;28;20186;-75
2023/05/11 06:52:31;;;;;;;5.63;3.63;;;;;;;;;;4991865;28;20221;-74
2023/05/11 06:55:38;;;;;;;5.27;4.57;;;;;;;;;;4991935;28;20186;-75
2023/05/11 06:58:42;;;;;;;3.63;3.20;;;;;;;;;;5014696;28;20530;-75
2023/05/11 07:01:46;;;;;;;4.03;3.67;;;;;;;;;;5014978;28;20217;-75
2023/05/11 07:04:50;;;;;;;4.77;3.50;;;;;;;;;;4991743;28;20178;-75
2023/05/11 07:07:55;;;;;;;5.57;3.53;;;;;;;;;;5014868;28;20178;-75
2023/05/11 07:10:59;;;;;;;5.13;4.63;;;;;;;;;;5014833;28;20185;-74
2023/05/11 07:14:03;;;;;;;5.57;5.07;;;;;;;;;;5002619;28;20189;-74
2023/05/11 07:17:07;;;;;;;3.80;3.40;;;;;;;;;;5002357;28;20213;-75
2023/05/11 07:20:11;;;;;;;3.97;2.87;;;;;;;;;;5002653;28;20185;-75
2023/05/11 07:23:16;;;;;;;3.40;2.80;;;;;;;;;;5002635;28;20217;-75
2023/05/11 07:26:20;;;;;;;3.07;2.77;;;;;;;;;;5014101;28;20182;-74
2023/05/11 07:29:25;;;;;;;4.23;2.97;;;;;;;;;;5002711;28;20178;-75
2023/05/11 07:32:29;;;;;;;3.60;3.03;;;;;;;;;;4991403;28;20221;-74
2023/05/11 07:35:33;;;;;;;3.90;2.67;;;;;;;;;;4991605;28;20185;-74
2023/05/11 07:38:37;;;;;;;2.47;2.27;;;;;;;;;;5002418;28;20186;-74
2023/05/11 07:41:41;;;;;;;2.50;2.30;;;;;;;;;;5002175;28;20209;-74
2023/05/11 07:44:46;;;;;;;3.13;2.23;;;;;;;;;;4991263;28;20201;-75
2023/05/11 07:47:50;;;;;;;4.47;3.87;;;;;;;;;;4991254;28;20201;-74
2023/05/11 07:50:54;;;;;;;2.83;2.43;;;;;;;;;;4991470;28;20174;-74
2023/05/11 07:53:58;;;;;;;3.63;2.53;;;;;;;;;;5014113;28;20209;-74
2023/05/11 07:57:04;;;;;;;2.40;1.90;;;;;;;;;;4990868;28;20632;-74
2023/05/11 08:00:09;;;;;;;2.37;2.17;;;;;;;;;;5002187;28;20632;-74
2023/05/11 08:03:18;;;;;;;2.13;1.93;;;;;;;;;;4990531;28;20213;-74
2023/05/11 08:06:22;;;;;;;3.00;1.60;;;;;;;;;;5013779;28;20182;-74
2023/05/11 08:09:26;;;;;;;4.37;1.73;;;;;;;;;;5013916;28;20197;-75
2023/05/11 08:12:30;;;;;;;2.97;2.00;;;;;;;;;;5013511;28;20228;-74
2023/05/11 08:15:34;;;;;;;2.70;2.50;;;;;;;;;;5013762;28;20186;-75
2023/05/11 08:18:38;;;;;;;3.13;2.80;;;;;;;;;;5001517;28;20213;-75
2023/05/11 08:21:43;;;;;;;1.97;1.83;;;;;;;;;;5013926;28;20213;-75
2023/05/11 08:24:49;;;;;;;2.40;1.97;;;;;;;;;;5001396;28;20169;-75
2023/05/11 08:27:53;;;;;;;2.13;1.93;;;;;;;;;;5001630;28;20177;-75
2023/05/11 08:30:58;;;;;;;2.23;1.83;;;;;;;;;;4990571;28;20181;-75
2023/05/11 08:34:02;;;;;;;4.27;1.70;;;;;;;;;;5001713;28;20205;-75
2023/05/11 08:37:06;;;;;;;2.53;1.50;;;;;;;;;;5013628;28;20186;-75
2023/05/11 08:40:11;;;;;;;2.70;1.90;;;;;;;;;;5001380;28;20181;-75
2023/05/11 08:43:17;;;;;;;2.53;1.90;;;;;;;;;;5001402;28;20209;-75
2023/05/11 08:46:23;;;;;;;3.30;1.63;;;;;;;;;;5001192;28;20185;-75
2023/05/11 08:49:27;;;;;;;2.20;2.00;;;;;;;;;;5013474;28;20181;-75
2023/05/11 08:52:31;;;;;;;4.50;1.70;;;;;;;;;;5001750;28;20221;-74
2023/05/11 08:55:37;;;;;;;1.53;1.37;;;;;;;;;;5013514;28;20189;-74
2023/05/11 08:58:42;;;;;;;1.83;1.33;;;;;;;;;;5013677;28;20182;-74
2023/05/11 09:01:47;;;;;;;5.07;1.50;;;;;;;;;;5013743;28;20217;-74
2023/05/11 09:04:53;;;;;;;3.37;1.50;;;;;;;;;;5001813;28;20178;-75
2023/05/11 09:08:03;;;;;;;5.87;1.40;;;;;;;;;;5013595;28;20181;-75
2023/05/11 09:11:08;;;;;;;1.97;1.30;;;;;;;;;;5013304;28;20186;-75
2023/05/11 09:14:12;;;;;;;2.53;2.13;;;;;;;;;;5006265;28;20217;-74
2023/05/11 09:17:16;;;;;;;2.60;2.40;;;;;;;;;;5005982;28;20209;-74
2023/05/11 09:20:28;;;;;;;2.17;1.70;;;;;;;;;;5007020;28;20545;-75
2023/05/11 09:23:33;;;;;;;2.10;2.00;;;;;;;;;;5021865;28;20177;-75
2023/05/11 09:26:37;;;;;;;2.90;1.53;;;;;;;;;;5021901;28;20644;-75
2023/05/11 09:29:41;;;;;;;2.47;1.30;;;;;;;;;;5021665;28;20197;-74
2023/05/11 09:32:50;;;;;;;1.57;1.33;;;;;;;;;;5020694;28;20695;-74
2023/05/11 09:35:54;;;;;;;1.83;1.37;;;;;;;;;;5008515;28;20177;-74
2023/05/11 09:39:02;;;;;;;1.33;1.20;;;;;;;;;;4997398;28;20185;-74
2023/05/11 09:42:17;;;;;;;1.93;1.10;;;;;;;;;;5008171;28;20213;-74
2023/05/11 09:45:35;;;;;;;1.20;1.10;;;;;;;;;;5007287;28;20182;-75
2023/05/11 09:48:39;;;;;;;1.27;0.97;;;;;;;;;;5007103;28;20181;-75
2023/05/11 09:51:43;;;;;;;2.13;1.10;;;;;;;;;;5018636;28;20217;-74
2023/05/11 09:54:51;;;;;;;1.30;1.20;;;;;;;;;;4995122;28;20165;-75
2023/05/11 09:57:57;;;;;;;3.50;1.40;;;;;;;;;;5018487;28;20185;-75
2023/05/11 10:01:02;;;;;;;1.37;1.00;;;;;;;;;;5018001;28;20525;-74
2023/05/11 10:04:09;;;;;;;3.20;1.30;;;;;;;;;;5017017;28;20197;-75
2023/05/11 10:07:23;;;;;;;2.07;1.60;;;;;;;;;;5017197;28;20640;-74
2023/05/11 10:10:29;;;;;;;1.20;1.10;;;;;;;;;;5005590;28;20522;-75
2023/05/11 10:13:35;;;;;;;2.40;1.83;;;;;;;;;;5017027;28;20198;-75
2023/05/11 10:16:41;;;;;;;4.17;3.40;;;;;;;;;;5004307;28;20189;-75
2023/05/11 10:19:46;;;;;;;3.07;1.30;;;;;;;;;;5016516;28;20185;-75
2023/05/11 10:22:53;;;;;;;1.80;1.43;;;;;;;;;;5016340;28;20209;-75
2023/05/11 10:25:57;;;;;;;2.40;1.57;;;;;;;;;;5016090;28;20186;-75
2023/05/11 10:29:01;;;;;;;3.00;1.50;;;;;;;;;;5016369;28;20201;-74
2023/05/11 10:32:06;;;;;;;2.60;1.40;;;;;;;;;;5015616;28;20217;-75
2023/05/11 10:35:11;;;;;;;1.87;1.17;;;;;;;;;;5016026;28;20174;-75
2023/05/11 10:38:16;;;;;;;1.87;1.53;;;;;;;;;;5016364;28;20518;-75
2023/05/11 10:41:30;;;;;;;1.90;1.80;;;;;;;;;;5015944;28;20177;-75
2023/05/11 10:45:12;;;;;;;4.20;1.30;;;;;;;;;;4992537;28;20621;-75
2023/05/11 10:48:27;;;;;;;1.93;1.40;;;;;;;;;;5015866;28;20186;-75
2023/05/11 10:51:50;;;;;;;3.53;1.80;;;;;;;;;;5015429;28;20209;-76
2023/05/11 10:55:12;;;;;;;2.70;1.20;;;;;;;;;;5015340;28;20206;-76
2023/05/11 10:58:41;;;;;;;1.50;1.30;;;;;;;;;;5015598;28;20189;-75
2023/05/11 11:01:45;;;;;;;1.70;1.20;;;;;;;;;;5003287;28;20209;-76
2023/05/11 11:04:50;;;;;;;1.37;1.00;;;;;;;;;;5015574;28;20173;-75
2023/05/11 11:07:59;;;;;;;1.83;1.20;;;;;;;;;;5003186;28;20632;-75
2023/05/11 11:11:37;;;;;;;1.40;1.27;;;;;;;;;;5014926;28;20178;-75
2023/05/11 11:15:05;;;;;;;1.73;1.40;;;;;;;;;;5015483;28;20209;-75
2023/05/11 11:18:22;;;;;;;2.77;1.30;;;;;;;;;;5031002;22;20209;-71
2023/05/11 11:21:44;;;;;;;1.83;1.23;;;;;;;;;;5030276;28;20230;-71
2023/05/11 11:24:48;;;;;;;1.30;1.20;;;;;;;;;;5002528;28;20177;-71
2023/05/11 11:27:52;;;;;;;1.47;1.10;;;;;;;;;;5014582;28;20182;-72
2023/05/11 11:31:26;;;;;;;1.30;1.20;;;;;;;;;;5014386;28;20178;-71
2023/05/11 11:34:32;;;;;;;1.43;1.10;;;;;;;;;;5002429;28;20201;-71
2023/05/11 11:38:00;;;;;;;1.60;1.10;;;;;;;;;;5002210;28;20636;-71
2023/05/11 11:41:08;;;;;;;2.77;1.30;;;;;;;;;;5002166;28;20185;-71
2023/05/11 11:44:21;;;;;;;1.50;1.00;;;;;;;;;;4990488;28;20517;-71
2023/05/11 11:47:25;;;;;;;1.57;1.20;;;;;;;;;;5013642;28;20182;-71
2023/05/11 11:50:29;;;;;;;1.20;1.10;;;;;;;;;;5002081;28;20177;-71
2023/05/11 11:53:36;;;;;;;1.47;1.10;;;;;;;;;;5001892;28;20545;-71
2023/05/11 11:56:42;;;;;;;3.20;1.37;;;;;;;;;;5014297;28;20624;-71
2023/05/11 11:59:46;;;;;;;2.27;1.40;;;;;;;;;;5013714;28;20548;-71
2023/05/11 12:02:52;;;;;;;1.23;1.13;;;;;;;;;;5013644;28;20217;-71
2023/05/11 12:06:00;;;;;;;1.33;1.23;;;;;;;;;;4990618;28;20695;-72
2023/05/11 12:09:05;;;;;;;1.53;1.30;;;;;;;;;;5014146;28;20186;-70
2023/05/11 12:12:09;;;;;;;1.83;1.63;;;;;;;;;;5014068;28;20217;-71
2023/05/11 12:15:28;;;;;;;1.27;1.17;;;;;;;;;;5001829;28;20197;-71
2023/05/11 12:18:32;;;;;;;1.23;1.13;;;;;;;;;;5001522;28;20209;-71
2023/05/11 12:21:37;;;;;;;1.30;1.20;;;;;;;;;;5013607;28;20691;-71
2023/05/11 12:24:41;;;;;;;2.27;1.47;;;;;;;;;;5013379;28;20628;-71
2023/05/11 12:28:00;;;;;;;2.70;2.17;;;;;;;;;;5013371;28;20182;-71
2023/05/11 12:31:04;;;;;;;14.20;9.13;;;;;;;;;;5013352;28;20182;-71
2023/05/11 12:34:16;;;;;;;2.80;2.53;;;;;;;;;;5014062;28;20205;-71
2023/05/11 12:37:20;;;;;;;1.90;1.70;;;;;;;;;;5013853;28;20177;-71
2023/05/11 12:40:24;;;;;;;2.60;2.20;;;;;;;;;;5013550;28;20178;-71
2023/05/11 12:43:29;;;;;;;1.60;1.47;;;;;;;;;;5013546;28;20652;-71
2023/05/11 12:46:32;;;;;;;3.13;1.40;;;;;;;;;;5001483;28;20648;-71
2023/05/11 12:49:37;;;;;;;1.97;1.23;;;;;;;;;;5013723;28;20185;-70
2023/05/11 12:52:41;;;;;;;0.80;0.80;;;;;;;;;;5001263;28;20217;-71
2023/05/11 12:55:57;;;;;;;2.13;1.20;;;;;;;;;;5015414;28;20169;-71
2023/05/11 12:59:01;;;;;;;2.57;1.10;;;;;;;;;;5017543;28;20189;-71
2023/05/11 13:02:05;;;;;;;2.27;1.30;;;;;;;;;;5017016;28;20687;-71
2023/05/11 13:05:13;;;;;;;3.70;1.50;;;;;;;;;;4993761;28;20174;-71
2023/05/11 13:08:18;;;;;;;1.77;1.00;;;;;;;;;;5005094;28;20177;-71
2023/05/11 13:11:24;;;;;;;1.70;1.20;;;;;;;;;;5017348;28;20173;-71
2023/05/11 13:14:30;;;;;;;1.50;1.40;;;;;;;;;;5017314;28;20671;-71
2023/05/11 13:17:35;;;;;;;1.30;1.10;;;;;;;;;;5015906;28;20201;-71
2023/05/11 13:20:40;;;;;;;1.50;1.00;;;;;;;;;;5016681;28;20178;-71
2023/05/11 13:23:48;;;;;;;3.27;1.20;;;;;;;;;;5016752;28;20173;-71
2023/05/11 13:26:53;;;;;;;4.00;2.10;;;;;;;;;;4993530;28;20525;-71
2023/05/11 13:29:57;;;;;;;2.13;1.50;;;;;;;;;;5017009;28;20186;-71
2023/05/11 13:33:02;;;;;;;1.67;1.30;;;;;;;;;;5016764;28;20221;-71
2023/05/11 13:36:06;;;;;;;1.60;1.43;;;;;;;;;;5016894;28;20173;-71
2023/05/11 13:39:10;;;;;;;3.10;1.63;;;;;;;;;;5004504;28;20185;-71
2023/05/11 13:42:14;;;;;;;1.97;1.50;;;;;;;;;;5016218;28;20213;-71
2023/05/11 13:45:18;;;;;;;2.40;2.20;;;;;;;;;;5004392;28;20182;-69
2023/05/11 13:48:22;;;;;;;3.33;1.87;;;;;;;;;;4993451;28;20177;-71
2023/05/11 13:51:26;;;;;;;2.00;1.80;;;;;;;;;;5016247;28;20213;-71
2023/05/11 13:54:31;;;;;;;1.53;1.43;;;;;;;;;;5016102;28;20217;-71
2023/05/11 13:57:35;;;;;;;2.13;1.50;;;;;;;;;;5016824;28;20185;-71
2023/05/11 14:00:39;;;;;;;3.00;2.50;;;;;;;;;;5004135;28;20186;-71
2023/05/11 14:03:43;;;;;;;10.33;3.90;;;;;;;;;;5004115;28;20181;-71
2023/05/11 14:06:47;;;;;;;6.40;1.87;;;;;;;;;;5015322;28;20182;-71
2023/05/11 14:09:51;;;;;;;2.10;1.53;;;;;;;;;;4992564;28;20181;-71
2023/05/11 14:12:55;;;;;;;2.17;1.40;;;;;;;;;;5003587;28;20217;-71
2023/05/11 14:16:00;;;;;;;4.30;3.43;;;;;;;;;;5016025;28;20170;-71
2023/05/11 14:19:04;;;;;;;178.90;72.53;;;;;;;;;;5015521;28;20213;-71
2023/05/11 14:22:08;;;;;;;7.83;4.90;;;;;;;;;;5015850;28;20228;-71
2023/05/11 14:25:12;;;;;;;2.70;1.90;;;;;;;;;;5003962;28;20169;-71
2023/05/11 14:28:16;;;;;;;2.27;1.50;;;;;;;;;;5003907;28;20633;-72
2023/05/11 14:31:20;;;;;;;5.10;1.43;;;;;;;;;;5015239;28;20197;-71
2023/05/11 14:34:25;;;;;;;1.70;1.57;;;;;;;;;;5015480;28;20221;-71
2023/05/11 14:37:28;;;;;;;1.50;1.40;;;;;;;;;;5015247;28;20185;-71
2023/05/11 14:40:33;;;;;;;2.80;1.60;;;;;;;;;;5015545;28;20181;-71
2023/05/11 14:43:36;;;;;;;1.60;1.50;;;;;;;;;;5003630;28;20186;-71
2023/05/11 14:46:41;;;;;;;1.60;1.50;;;;;;;;;;5015025;28;20178;-71
2023/05/11 14:49:45;;;;;;;1.83;1.73;;;;;;;;;;5003509;28;20620;-71
2023/05/11 14:52:49;;;;;;;1.93;1.73;;;;;;;;;;4991687;28;20699;-71
2023/05/11 14:55:53;;;;;;;1.80;1.70;;;;;;;;;;5015345;28;20217;-71
2023/05/11 14:58:58;;;;;;;2.00;1.77;;;;;;;;;;5015363;28;20549;-71
2023/05/11 15:02:02;;;;;;;2.00;1.80;;;;;;;;;;5014583;28;20695;-71
2023/05/11 15:05:07;;;;;;;14.83;11.00;;;;;;;;;;5015114;28;20178;-70
2023/05/11 15:08:11;;;;;;;154.50;74.50;;;;;;;;;;5002377;28;20204;-71
2023/05/11 15:11:17;;;;;;;39.67;22.00;;;;;;;;;;5014707;28;20544;-71
2023/05/11 15:14:21;;;;;;;5.83;4.20;;;;;;;;;;5014602;28;20246;-71
2023/05/11 15:17:25;;;;;;;3.97;2.47;;;;;;;;;;5013962;28;20181;-70
2023/05/11 15:20:29;;;;;;;2.30;2.10;;;;;;;;;;5002371;28;20201;-70
2023/05/11 15:23:33;;;;;;;2.53;1.83;;;;;;;;;;5014516;28;20181;-71
2023/05/11 15:26:37;;;;;;;2.53;2.33;;;;;;;;;;5014465;28;20174;-71
2023/05/11 15:29:41;;;;;;;6.20;1.90;;;;;;;;;;5002276;28;20529;-71
2023/05/11 15:32:45;;;;;;;2.07;1.73;;;;;;;;;;5014035;28;20225;-70
2023/05/11 15:35:50;;;;;;;1.90;1.70;;;;;;;;;;5013925;28;20216;-71
2023/05/11 15:38:54;;;;;;;1.93;1.70;;;;;;;;;;5013962;28;20205;-71
2023/05/11 15:41:58;;;;;;;3.40;2.07;;;;;;;;;;5013852;28;20217;-71
2023/05/11 15:45:04;;;;;;;2.33;2.00;;;;;;;;;;5013839;28;20181;-71
2023/05/11 15:48:09;;;;;;;2.73;2.00;;;;;;;;;;5014085;28;20185;-71
2023/05/11 15:51:13;;;;;;;2.10;1.90;;;;;;;;;;5013941;28;20178;-70
2023/05/11 15:54:16;;;;;;;2.53;2.20;;;;;;;;;;5002150;28;20178;-71
2023/05/11 15:57:20;;;;;;;2.30;1.90;;;;;;;;;;5014497;28;20185;-71
2023/05/11 16:00:25;;;;;;;2.70;1.67;;;;;;;;;;5014065;28;20174;-71
2023/05/11 16:03:29;;;;;;;1.57;1.47;;;;;;;;;;5014146;28;20173;-71
2023/05/11 16:06:34;;;;;;;1.70;1.60;;;;;;;;;;5013789;28;20177;-71
2023/05/11 16:09:38;;;;;;;2.60;1.70;;;;;;;;;;5013534;28;20633;-71
2023/05/11 16:12:42;;;;;;;2.67;1.77;;;;;;;;;;5001730;28;20679;-71
2023/05/11 16:15:46;;;;;;;1.73;1.30;;;;;;;;;;5013476;28;20201;-71
2023/05/11 16:18:50;;;;;;;2.77;1.77;;;;;;;;;;5013439;28;20554;-71
2023/05/11 16:21:55;;;;;;;1.77;1.43;;;;;;;;;;5013567;28;20221;-71
2023/05/11 16:24:59;;;;;;;2.97;1.70;;;;;;;;;;5013498;28;20193;-71
2023/05/11 16:28:03;;;;;;;1.33;1.20;;;;;;;;;;5013985;28;20196;-71
2023/05/11 16:31:08;;;;;;;1.73;1.40;;;;;;;;;;5013104;28;20185;-71
2023/05/11 16:34:12;;;;;;;1.87;1.10;;;;;;;;;;5001292;28;20181;-71
2023/05/11 16:37:16;;;;;;;4.23;1.50;;;;;;;;;;5013809;28;20165;-71
2023/05/11 16:40:20;;;;;;;2.27;1.60;;;;;;;;;;5013203;28;20189;-71
2023/05/11 16:43:25;;;;;;;1.57;1.47;;;;;;;;;;5012244;28;20217;-71
2023/05/11 16:46:29;;;;;;;2.30;1.73;;;;;;;;;;5001083;28;20660;-71
2023/05/11 16:49:33;;;;;;;1.77;1.67;;;;;;;;;;5013672;28;20173;-71
2023/05/11 16:52:37;;;;;;;1.63;1.30;;;;;;;;;;5000993;28;20213;-71
2023/05/11 16:55:41;;;;;;;6.47;1.40;;;;;;;;;;5001207;28;20221;-71
2023/05/11 16:58:45;;;;;;;1.40;1.30;;;;;;;;;;4989780;28;20201;-71
2023/05/11 17:01:50;;;;;;;0.93;0.83;;;;;;;;;;5012960;28;20221;-71
2023/05/11 17:04:54;;;;;;;1.43;0.77;;;;;;;;;;5001144;28;20177;-71
2023/05/11 17:07:58;;;;;;;5.10;0.80;;;;;;;;;;5013239;28;20182;-72
2023/05/11 17:11:02;;;;;;;1.00;0.90;;;;;;;;;;5013046;28;20660;-71
2023/05/11 17:14:06;;;;;;;1.67;0.83;;;;;;;;;;5013140;28;20197;-71
2023/05/11 17:17:10;;;;;;;1.63;0.93;;;;;;;;;;5013070;28;20181;-71
2023/05/11 17:20:15;;;;;;;1.10;0.90;;;;;;;;;;5014540;28;20201;-70
2023/05/11 17:23:19;;;;;;;3.97;1.10;;;;;;;;;;5001238;28;20692;-70
2023/05/11 17:26:23;;;;;;;1.10;0.80;;;;;;;;;;5012770;28;20173;-70
2023/05/11 17:29:28;;;;;;;1.43;1.10;;;;;;;;;;5000716;28;20173;-70
2023/05/11 17:32:32;;;;;;;1.30;0.90;;;;;;;;;;5012595;28;20221;-70
2023/05/11 17:35:37;;;;;;;1.20;0.90;;;;;;;;;;5012836;28;20205;-70
2023/05/11 17:38:41;;;;;;;1.10;1.00;;;;;;;;;;5013186;28;20186;-70
2023/05/11 17:41:46;;;;;;;1.13;0.90;;;;;;;;;;5014519;28;20209;-70
2023/05/11 17:44:50;;;;;;;2.20;1.30;;;;;;;;;;5016451;28;20174;-70
2023/05/11 17:47:54;;;;;;;1.10;1.00;;;;;;;;;;5016156;28;20178;-70
2023/05/11 17:50:58;;;;;;;2.90;1.30;;;;;;;;;;5016866;28;20509;-70
2023/05/11 17:54:02;;;;;;;1.77;1.40;;;;;;;;;;5015955;28;20186;-70
2023/05/11 17:57:06;;;;;;;2.63;1.30;;;;;;;;;;5016146;28;20628;-70
2023/05/11 18:00:11;;;;;;;1.37;1.20;;;;;;;;;;5015724;28;20182;-70
2023/05/11 18:03:15;;;;;;;2.03;1.50;;;;;;;;;;5003602;28;20687;-70
2023/05/11 18:06:19;;;;;;;1.60;1.30;;;;;;;;;;5004278;28;20181;-70
2023/05/11 18:09:23;;;;;;;4.43;1.60;;;;;;;;;;5015911;28;20182;-71
2023/05/11 18:12:29;;;;;;;2.73;1.40;;;;;;;;;;5015652;28;20212;-70
2023/05/11 18:15:33;;;;;;;2.90;1.50;;;;;;;;;;5016031;28;20672;-70
2023/05/11 18:18:37;;;;;;;1.90;1.70;;;;;;;;;;5015850;28;20209;-70
2023/05/11 18:21:41;;;;;;;2.93;1.70;;;;;;;;;;5003276;28;20213;-70
2023/05/11 18:24:45;;;;;;;3.87;1.50;;;;;;;;;;5003626;28;20177;-70
2023/05/11 18:27:49;;;;;;;2.27;1.57;;;;;;;;;;5015664;28;20529;-70
2023/05/11 18:30:54;;;;;;;3.70;1.50;;;;;;;;;;5015608;28;20185;-70
2023/05/11 18:33:58;;;;;;;6.30;1.60;;;;;;;;;;5015503;28;20185;-70
2023/05/11 18:37:02;;;;;;;5.50;1.90;;;;;;;;;;5015378;28;20217;-70